createdAt,value
2018-07-05T00:01:59.888Z,18.30
2018-07-05T00:04:47.520Z,18.20
2018-07-05T00:07:32.989Z,18.20
2018-07-05T00:10:18.406Z,18.10
2018-07-05T00:13:04.217Z,18.10
2018-07-05T00:15:54.238Z,18.00
2018-07-05T00:18:42.897Z,18.00
2018-07-05T00:21:30.733Z,17.90
2018-07-05T00:24:16.365Z,17.90
2018-07-05T00:27:03.920Z,17.80
2018-07-05T00:29:49.416Z,17.80
2018-07-05T00:32:34.888Z,17.70
2018-07-05T00:35:20.755Z,17.70
2018-07-05T00:38:08.428Z,17.60
2018-07-05T00:40:53.858Z,17.50
2018-07-05T00:43:40.168Z,17.40
2018-07-05T00:46:25.745Z,17.40
2018-07-05T00:49:11.372Z,17.30
2018-07-05T00:52:01.418Z,17.30
2018-07-05T00:54:49.255Z,17.20
2018-07-05T00:57:34.925Z,17.20
2018-07-05T01:00:22.906Z,17.10
2018-07-05T01:03:08.455Z,17.10
2018-07-05T01:05:53.953Z,17.00
2018-07-05T01:08:41.466Z,17.00
2018-07-05T01:11:31.425Z,16.90
2018-07-05T01:14:28.656Z,16.90
2018-07-05T01:17:16.154Z,16.90
2018-07-05T01:20:04.203Z,16.80
2018-07-05T01:22:49.934Z,16.80
2018-07-05T01:25:37.393Z,16.80
2018-07-05T01:28:23.091Z,16.70
2018-07-05T01:34:05.632Z,16.60
2018-07-05T01:36:54.269Z,16.60
2018-07-05T01:39:47.357Z,16.50
2018-07-05T01:42:32.701Z,16.50
2018-07-05T01:45:20.308Z,16.40
2018-07-05T01:48:08.159Z,16.40
2018-07-05T01:50:54.032Z,16.40
2018-07-05T01:53:39.634Z,16.30
2018-07-05T01:56:25.185Z,16.30
2018-07-05T01:59:10.568Z,16.20
2018-07-05T02:01:55.923Z,16.20
2018-07-05T02:04:41.345Z,16.20
2018-07-05T02:07:29.055Z,16.10
2018-07-05T02:10:14.690Z,16.10
2018-07-05T02:13:00.511Z,16.10
2018-07-05T02:15:48.366Z,16.10
2018-07-05T02:18:33.766Z,16.00
2018-07-05T02:21:19.236Z,16.00
2018-07-05T02:24:07.650Z,16.00
2018-07-05T02:26:56.862Z,16.00
2018-07-05T02:29:46.611Z,15.90
2018-07-05T02:32:32.216Z,15.90
2018-07-05T02:35:17.992Z,15.90
2018-07-05T02:38:37.467Z,15.90
2018-07-05T02:41:23.081Z,15.90
2018-07-05T02:44:12.931Z,15.90
2018-07-05T02:46:58.516Z,15.80
2018-07-05T02:49:46.172Z,15.80
2018-07-05T02:52:33.991Z,15.80
2018-07-05T02:55:19.443Z,15.70
2018-07-05T02:58:07.182Z,15.70
2018-07-05T03:03:45.419Z,15.60
2018-07-05T03:06:31.072Z,15.50
2018-07-05T03:09:18.935Z,15.50
2018-07-05T03:12:04.382Z,15.50
2018-07-05T03:14:50.191Z,15.40
2018-07-05T03:17:39.846Z,15.40
2018-07-05T03:20:28.551Z,15.40
2018-07-05T03:23:18.487Z,15.30
2018-07-05T03:26:04.091Z,15.30
2018-07-05T03:28:49.459Z,15.30
2018-07-05T03:31:37.340Z,15.30
2018-07-05T03:34:22.753Z,15.30
2018-07-05T03:37:08.276Z,15.30
2018-07-05T03:39:55.786Z,15.30
2018-07-05T03:42:48.606Z,15.30
2018-07-05T03:45:34.005Z,15.30
2018-07-05T03:48:22.612Z,15.30
2018-07-05T03:51:10.174Z,15.40
2018-07-05T03:53:57.844Z,15.40
2018-07-05T03:56:43.193Z,15.40
2018-07-05T03:59:29.017Z,15.40
2018-07-05T04:05:07.252Z,15.40
2018-07-05T04:07:55.757Z,15.40
2018-07-05T04:10:48.850Z,15.50
2018-07-05T04:13:44.041Z,15.50
2018-07-05T04:16:31.656Z,15.50
2018-07-05T04:22:10.014Z,15.60
2018-07-05T04:24:59.929Z,15.60
2018-07-05T04:27:45.791Z,15.70
2018-07-05T04:33:24.432Z,15.80
2018-07-05T04:36:15.005Z,15.90
2018-07-05T04:39:00.686Z,16.20
2018-07-05T04:41:46.064Z,16.30
2018-07-05T04:44:32.902Z,16.30
2018-07-05T04:47:22.679Z,16.40
2018-07-05T04:50:11.362Z,16.40
2018-07-05T04:53:01.400Z,16.50
2018-07-05T04:55:49.250Z,16.50
2018-07-05T04:58:36.775Z,16.70
2018-07-05T05:01:29.869Z,16.80
2018-07-05T05:04:18.503Z,17.00
2018-07-05T05:07:06.230Z,17.10
2018-07-05T05:09:56.023Z,17.10
2018-07-05T05:12:43.997Z,17.10
2018-07-05T05:15:30.216Z,17.20
2018-07-05T05:18:19.769Z,17.30
2018-07-05T05:21:05.709Z,17.40
2018-07-05T05:23:55.545Z,17.40
2018-07-05T05:26:43.323Z,17.40
2018-07-05T05:29:31.062Z,17.60
2018-07-05T05:32:26.386Z,18.00
2018-07-05T05:35:14.718Z,18.30
2018-07-05T05:38:02.185Z,18.60
2018-07-05T05:40:49.853Z,19.00
2018-07-05T05:43:37.497Z,19.30
2018-07-05T05:46:22.881Z,19.70
2018-07-05T05:49:08.524Z,19.70
2018-07-05T05:51:56.177Z,19.80
2018-07-05T05:54:41.628Z,20.10
2018-07-05T05:57:27.220Z,20.50
2018-07-05T06:00:14.699Z,20.90
2018-07-05T06:03:02.692Z,21.20
2018-07-05T06:05:48.266Z,21.60
2018-07-05T06:08:35.661Z,22.00
2018-07-05T06:11:25.295Z,22.50
2018-07-05T06:16:52.911Z,23.10
2018-07-05T06:19:38.690Z,23.20
2018-07-05T06:22:33.994Z,23.40
2018-07-05T06:25:21.853Z,23.60
2018-07-05T06:28:11.539Z,23.90
2018-07-05T06:30:57.150Z,24.00
2018-07-05T06:33:47.118Z,24.40
2018-07-05T06:36:35.098Z,24.70
2018-07-05T06:39:27.620Z,24.70
2018-07-05T06:42:13.463Z,24.90
2018-07-05T06:45:01.025Z,25.10
2018-07-05T06:47:46.517Z,25.20
2018-07-05T06:50:31.947Z,25.20
2018-07-05T06:53:17.767Z,25.30
2018-07-05T06:56:06.285Z,25.30
2018-07-05T06:58:52.414Z,25.60
2018-07-05T07:01:40.052Z,25.80
2018-07-05T07:04:25.394Z,25.60
2018-07-05T07:07:10.805Z,25.70
2018-07-05T07:10:00.885Z,25.60
2018-07-05T07:12:46.808Z,25.70
2018-07-05T07:15:32.934Z,25.70
2018-07-05T07:18:20.900Z,25.70
2018-07-05T07:21:06.792Z,26.10
2018-07-05T07:23:54.442Z,26.50
2018-07-05T07:26:39.985Z,26.60
2018-07-05T07:29:25.802Z,26.80
2018-07-05T07:32:15.728Z,26.90
2018-07-05T07:35:03.270Z,27.20
2018-07-05T07:37:52.965Z,27.40
2018-07-05T07:40:38.462Z,27.50
2018-07-05T07:43:11.215Z,27.50
2018-07-05T07:45:38.131Z,27.60
2018-07-05T07:48:04.898Z,27.80
2018-07-05T07:50:31.667Z,28.00
2018-07-05T07:52:58.403Z,28.30
2018-07-05T07:55:25.133Z,28.40
2018-07-05T07:57:51.897Z,28.40
2018-07-05T08:00:18.789Z,28.40
2018-07-05T08:02:45.644Z,28.40
2018-07-05T08:05:12.407Z,28.20
2018-07-05T08:07:39.581Z,28.40
2018-07-05T08:10:06.393Z,28.40
2018-07-05T08:12:33.155Z,28.40
2018-07-05T08:15:00.116Z,28.60
2018-07-05T08:17:26.859Z,28.30
2018-07-05T08:19:53.738Z,28.20
2018-07-05T08:22:20.557Z,28.50
2018-07-05T08:24:47.361Z,28.50
2018-07-05T08:27:14.190Z,28.40
2018-07-05T08:29:41.045Z,28.50
2018-07-05T08:32:08.502Z,28.90
2018-07-05T08:34:35.337Z,28.80
2018-07-05T08:37:02.151Z,28.60
2018-07-05T08:39:28.942Z,28.70
2018-07-05T08:41:55.820Z,28.90
2018-07-05T08:44:22.596Z,29.00
2018-07-05T08:46:49.447Z,29.00
2018-07-05T08:49:16.304Z,29.10
2018-07-05T08:51:43.203Z,29.20
2018-07-05T08:54:09.988Z,29.20
2018-07-05T08:56:36.711Z,29.40
2018-07-05T08:59:03.473Z,29.50
2018-07-05T09:01:30.284Z,29.70
2018-07-05T09:03:57.434Z,29.90
2018-07-05T09:06:24.177Z,30.10
2018-07-05T09:08:50.898Z,30.20
2018-07-05T09:11:17.671Z,30.30
2018-07-05T09:13:44.508Z,30.60
2018-07-05T09:16:11.351Z,30.50
2018-07-05T09:18:38.058Z,30.40
2018-07-05T09:21:04.850Z,29.90
2018-07-05T09:23:31.706Z,29.80
2018-07-05T09:25:58.460Z,29.90
2018-07-05T09:28:25.250Z,30.20
2018-07-05T09:30:52.080Z,30.20
2018-07-05T09:33:18.908Z,30.30
2018-07-05T09:35:45.698Z,30.60
2018-07-05T09:38:12.629Z,30.90
2018-07-05T09:40:39.467Z,31.20
2018-07-05T09:43:06.297Z,31.30
2018-07-05T09:45:33.110Z,31.50
2018-07-05T09:47:59.886Z,31.60
2018-07-05T09:50:26.602Z,31.80
2018-07-05T09:52:53.522Z,32.00
2018-07-05T09:55:20.386Z,32.10
2018-07-05T09:57:47.245Z,32.00
2018-07-05T10:00:14.013Z,32.10
2018-07-05T10:02:41.036Z,32.30
2018-07-05T10:05:08.004Z,32.30
2018-07-05T10:07:34.820Z,32.00
2018-07-05T10:10:02.291Z,32.00
2018-07-05T10:12:29.352Z,32.10
2018-07-05T10:14:56.117Z,32.10
2018-07-05T10:17:22.899Z,32.30
2018-07-05T10:19:50.102Z,32.20
2018-07-05T10:22:16.924Z,31.70
2018-07-05T10:24:43.755Z,31.40
2018-07-05T10:27:10.517Z,31.40
2018-07-05T10:29:54.074Z,31.40
2018-07-05T10:32:39.787Z,31.60
2018-07-05T10:35:12.921Z,31.80
2018-07-05T10:37:39.767Z,31.90
2018-07-05T10:40:21.361Z,31.80
2018-07-05T10:43:07.120Z,31.60
2018-07-05T10:45:54.733Z,31.10
2018-07-05T10:48:46.438Z,31.00
2018-07-05T10:51:32.022Z,31.10
2018-07-05T10:54:19.551Z,31.00
2018-07-05T10:57:07.370Z,31.30
2018-07-05T10:59:52.885Z,31.60
2018-07-05T11:02:38.715Z,32.00
2018-07-05T11:05:29.186Z,32.10
2018-07-05T11:08:15.282Z,32.40
2018-07-05T11:11:01.034Z,32.30
2018-07-05T11:13:46.561Z,32.20
2018-07-05T11:16:36.687Z,31.90
2018-07-05T11:19:24.686Z,31.90
2018-07-05T11:22:10.242Z,32.20
2018-07-05T11:24:56.107Z,32.10
2018-07-05T11:27:45.969Z,32.10
2018-07-05T11:30:31.500Z,32.20
2018-07-05T11:33:24.576Z,32.30
2018-07-05T11:36:09.908Z,32.40
2018-07-05T11:39:03.089Z,32.30
2018-07-05T11:41:51.598Z,32.30
2018-07-05T11:44:40.311Z,32.30
2018-07-05T11:47:27.939Z,32.30
2018-07-05T11:50:13.718Z,32.30
2018-07-05T11:53:03.584Z,32.50
2018-07-05T11:55:51.262Z,32.50
2018-07-05T11:58:41.236Z,32.60
2018-07-05T12:01:28.858Z,32.60
2018-07-05T12:04:18.505Z,32.40
2018-07-05T12:07:04.302Z,32.10
2018-07-05T12:09:54.017Z,32.00
2018-07-05T12:12:41.615Z,32.10
2018-07-05T12:15:27.067Z,32.30
2018-07-05T12:18:13.919Z,32.40
2018-07-05T12:20:59.688Z,32.40
2018-07-05T12:23:45.105Z,32.30
2018-07-05T12:26:30.429Z,31.90
2018-07-05T12:29:18.949Z,31.60
2018-07-05T12:32:06.522Z,31.50
2018-07-05T12:34:52.314Z,31.50
2018-07-05T12:37:40.874Z,31.50
2018-07-05T12:40:33.660Z,31.50
2018-07-05T12:43:19.296Z,31.60
2018-07-05T12:46:07.749Z,31.70
2018-07-05T12:48:55.430Z,32.00
2018-07-05T12:51:45.261Z,31.80
2018-07-05T12:54:38.250Z,31.80
2018-07-05T12:57:23.807Z,31.70
2018-07-05T13:00:09.288Z,31.60
2018-07-05T13:02:57.116Z,31.30
2018-07-05T13:05:42.686Z,31.30
2018-07-05T13:08:27.978Z,31.50
2018-07-05T13:11:13.752Z,31.70
2018-07-05T13:13:59.426Z,31.90
2018-07-05T13:16:44.910Z,32.00
2018-07-05T13:19:30.663Z,32.10
2018-07-05T13:22:18.526Z,32.20
2018-07-05T13:25:04.553Z,32.00
2018-07-05T13:27:50.287Z,31.80
2018-07-05T13:30:37.802Z,31.90
2018-07-05T13:33:25.547Z,32.00
2018-07-05T13:36:11.357Z,32.00
2018-07-05T13:39:01.335Z,32.10
2018-07-05T13:41:49.954Z,32.20
2018-07-05T13:44:37.526Z,32.20
2018-07-05T13:47:23.203Z,32.00
2018-07-05T13:50:19.204Z,31.90
2018-07-05T13:53:04.929Z,31.50
2018-07-05T13:55:54.900Z,31.40
2018-07-05T13:58:40.917Z,31.40
2018-07-05T14:01:28.935Z,31.50
2018-07-05T14:04:19.121Z,31.50
2018-07-05T14:07:06.965Z,31.50
2018-07-05T14:09:57.534Z,31.40
2018-07-05T14:12:43.031Z,31.30
2018-07-05T14:15:28.692Z,31.20
2018-07-05T14:18:16.486Z,31.20
2018-07-05T14:21:01.916Z,31.00
2018-07-05T14:23:47.217Z,30.80
2018-07-05T14:26:32.678Z,30.30
2018-07-05T14:29:20.791Z,30.20
2018-07-05T14:32:06.593Z,30.10
2018-07-05T14:34:54.356Z,29.80
2018-07-05T14:37:39.922Z,29.60
2018-07-05T14:40:26.232Z,29.50
2018-07-05T14:43:13.878Z,29.80
2018-07-05T14:45:59.354Z,29.80
2018-07-05T14:48:49.059Z,29.80
2018-07-05T14:51:34.482Z,29.70
2018-07-05T14:54:19.857Z,29.80
2018-07-05T14:57:05.470Z,29.80
2018-07-05T14:59:55.337Z,29.90
2018-07-05T15:02:41.112Z,29.90
2018-07-05T15:05:27.328Z,29.90
2018-07-05T15:08:14.707Z,29.90
2018-07-05T15:11:00.250Z,29.90
2018-07-05T15:13:49.997Z,29.80
2018-07-05T15:16:37.606Z,29.70
2018-07-05T15:19:25.141Z,29.70
2018-07-05T15:22:15.873Z,29.70
2018-07-05T15:25:01.510Z,29.70
2018-07-05T15:27:49.419Z,29.50
2018-07-05T15:30:35.095Z,29.40
2018-07-05T15:33:22.801Z,29.50
2018-07-05T15:36:08.497Z,29.40
2018-07-05T15:38:58.515Z,29.30
2018-07-05T15:41:44.550Z,29.20
2018-07-05T15:44:37.328Z,29.00
2018-07-05T15:47:24.913Z,28.80
2018-07-05T15:50:12.347Z,28.60
2018-07-05T15:52:59.996Z,28.60
2018-07-05T15:55:45.679Z,28.40
2018-07-05T15:58:33.589Z,28.20
2018-07-05T16:01:23.952Z,28.10
2018-07-05T16:04:09.733Z,28.10
2018-07-05T16:06:57.301Z,28.00
2018-07-05T16:09:45.443Z,27.90
2018-07-05T16:12:35.062Z,27.90
2018-07-05T16:15:20.566Z,27.80
2018-07-05T16:18:05.981Z,27.80
2018-07-05T16:20:51.280Z,27.80
2018-07-05T16:23:36.606Z,27.70
2018-07-05T16:26:22.034Z,27.60
2018-07-05T16:29:09.753Z,27.60
2018-07-05T16:31:55.558Z,27.50
2018-07-05T16:34:44.168Z,27.40
2018-07-05T16:37:29.582Z,27.10
2018-07-05T16:40:19.561Z,26.90
2018-07-05T16:43:07.659Z,26.70
2018-07-05T16:45:53.170Z,26.60
2018-07-05T16:48:38.554Z,26.60
2018-07-05T16:51:27.052Z,26.40
2018-07-05T16:54:14.952Z,26.40
2018-07-05T16:57:00.800Z,26.30
2018-07-05T16:59:48.998Z,26.20
2018-07-05T17:02:36.349Z,26.00
2018-07-05T17:05:24.319Z,25.60
2018-07-05T17:08:09.807Z,25.50
2018-07-05T17:13:37.107Z,24.90
2018-07-05T17:16:22.583Z,24.80
2018-07-05T17:19:07.979Z,24.70
2018-07-05T17:21:54.048Z,24.60
2018-07-05T17:24:39.598Z,24.50
2018-07-05T17:27:24.983Z,24.40
2018-07-05T17:32:54.546Z,24.30
2018-07-05T17:35:40.414Z,24.20
2018-07-05T17:38:28.040Z,24.10
2018-07-05T17:41:16.303Z,24.10
2018-07-05T17:44:01.922Z,24.00
2018-07-05T17:46:47.268Z,23.90
2018-07-05T17:49:32.761Z,23.90
2018-07-05T17:52:20.162Z,23.90
2018-07-05T17:55:07.765Z,23.70
2018-07-05T17:57:57.545Z,23.60
2018-07-05T18:00:50.847Z,23.50
2018-07-05T18:03:46.012Z,23.40
2018-07-05T18:06:31.447Z,23.20
2018-07-05T18:09:19.831Z,23.10
2018-07-05T18:12:07.368Z,23.10
2018-07-05T18:14:53.042Z,23.00
2018-07-05T18:17:38.469Z,22.90
2018-07-05T18:20:23.900Z,22.80
2018-07-05T18:23:17.017Z,22.70
2018-07-05T18:26:02.833Z,22.60
2018-07-05T18:28:50.505Z,22.50
2018-07-05T18:31:36.162Z,22.40
2018-07-05T18:34:25.163Z,22.30
2018-07-05T18:37:10.912Z,22.20
2018-07-05T18:39:56.216Z,22.10
2018-07-05T18:42:43.788Z,22.00
2018-07-05T18:45:34.251Z,21.90
2018-07-05T18:48:19.797Z,21.80
2018-07-05T18:51:05.608Z,21.70
2018-07-05T18:53:53.285Z,21.70
2018-07-05T18:56:38.686Z,21.60
2018-07-05T18:59:24.166Z,21.50
2018-07-05T19:02:10.067Z,21.50
2018-07-05T19:04:59.929Z,21.40
2018-07-05T19:07:49.517Z,21.30
2018-07-05T19:13:27.746Z,21.00
2018-07-05T19:16:16.406Z,21.00
2018-07-05T19:19:04.202Z,20.80
2018-07-05T19:21:52.879Z,20.80
2018-07-05T19:24:40.547Z,20.70
2018-07-05T19:27:30.354Z,20.60
2018-07-05T19:30:15.813Z,20.50
2018-07-05T19:33:03.392Z,20.40
2018-07-05T19:35:49.125Z,20.30
2018-07-05T19:38:34.556Z,20.20
2018-07-05T19:41:20.200Z,20.20
2018-07-05T19:44:10.849Z,20.10
2018-07-05T19:46:56.456Z,20.00
2018-07-05T19:49:41.802Z,19.90
2018-07-05T19:52:27.260Z,19.80
2018-07-05T19:58:05.750Z,19.70
2018-07-05T20:00:51.100Z,19.50
2018-07-05T20:03:37.005Z,19.40
2018-07-05T20:06:22.808Z,19.40
2018-07-05T20:09:12.884Z,19.30
2018-07-05T20:12:04.077Z,19.20
2018-07-05T20:14:49.649Z,19.10
2018-07-05T20:17:37.228Z,19.00
2018-07-05T20:20:22.907Z,18.90
2018-07-05T20:23:08.540Z,18.80
2018-07-05T20:25:54.654Z,18.80
2018-07-05T20:28:40.222Z,18.70
2018-07-05T20:31:33.332Z,18.60
2018-07-05T20:34:18.748Z,18.50
2018-07-05T20:37:04.172Z,18.40
2018-07-05T20:39:49.926Z,18.40
2018-07-05T20:42:35.611Z,18.30
2018-07-05T20:45:21.102Z,18.20
2018-07-05T20:48:06.467Z,18.10
2018-07-05T20:50:51.842Z,18.10
2018-07-05T20:53:37.529Z,18.00
2018-07-05T20:56:27.890Z,17.90
2018-07-05T20:59:13.535Z,17.90
2018-07-05T21:01:58.988Z,17.80
2018-07-05T21:04:47.533Z,17.70
2018-07-05T21:10:26.144Z,17.60
2018-07-05T21:13:13.688Z,17.50
2018-07-05T21:16:04.439Z,17.40
2018-07-05T21:18:49.880Z,17.30
2018-07-05T21:21:38.343Z,17.20
2018-07-05T21:24:28.889Z,17.20
2018-07-05T21:27:14.942Z,17.10
2018-07-05T21:30:04.863Z,17.10
2018-07-05T21:32:50.793Z,17.00
2018-07-05T21:35:40.604Z,17.00
2018-07-05T21:38:28.453Z,16.90
2018-07-05T21:41:18.292Z,16.90
2018-07-05T21:44:03.867Z,16.80
2018-07-05T21:46:51.909Z,16.80
2018-07-05T21:49:39.624Z,16.70
2018-07-05T21:52:25.548Z,16.70
2018-07-05T21:55:13.914Z,16.60
2018-07-05T21:58:01.665Z,16.60
2018-07-05T22:00:49.249Z,16.50
2018-07-05T22:03:36.953Z,16.50
2018-07-05T22:06:28.265Z,16.40
2018-07-05T22:09:16.023Z,16.40
2018-07-05T22:12:01.604Z,16.30
2018-07-05T22:14:49.112Z,16.20
2018-07-05T22:17:42.057Z,16.20
2018-07-05T22:20:33.422Z,16.10
2018-07-05T22:23:24.796Z,16.00
2018-07-05T22:26:16.161Z,16.00
2018-07-05T22:29:07.445Z,15.90
2018-07-05T22:31:58.488Z,15.80
2018-07-05T22:34:43.825Z,15.70
2018-07-05T22:37:31.359Z,15.60
2018-07-05T22:40:21.033Z,15.60
2018-07-05T22:43:06.774Z,15.50
2018-07-05T22:45:52.388Z,15.50
2018-07-05T22:48:40.244Z,15.40
2018-07-05T22:51:25.511Z,15.40
2018-07-05T22:54:11.532Z,15.30
2018-07-05T22:56:59.241Z,15.30
2018-07-05T22:59:46.860Z,15.20
2018-07-05T23:05:25.207Z,15.10
2018-07-05T23:08:13.199Z,15.00
2018-07-05T23:10:58.703Z,15.00
2018-07-05T23:13:47.342Z,15.00
2018-07-05T23:16:35.125Z,14.90
2018-07-05T23:19:20.573Z,14.80
2018-07-05T23:22:06.296Z,14.80
2018-07-05T23:24:55.991Z,14.80
2018-07-05T23:27:41.554Z,14.70
2018-07-05T23:30:27.111Z,14.70
2018-07-05T23:33:12.401Z,14.60
2018-07-05T23:35:57.763Z,14.70
2018-07-05T23:38:50.888Z,14.60
2018-07-05T23:41:38.503Z,14.70
2018-07-05T23:44:26.114Z,14.60
2018-07-05T23:47:11.749Z,14.60
2018-07-05T23:49:57.514Z,14.60
2018-07-05T23:52:47.425Z,14.60
2018-07-05T23:55:40.529Z,14.60
2018-07-05T23:58:29.237Z,14.60
